createdAt,value
2023-03-16T00:00:19.265Z,0.80
2023-03-16T00:02:46.362Z,0.70
2023-03-16T00:05:15.124Z,0.60
2023-03-16T00:07:42.696Z,0.60
2023-03-16T00:10:12.722Z,0.50
2023-03-16T00:12:43.977Z,0.50
2023-03-16T00:15:12.948Z,0.40
2023-03-16T00:17:40.062Z,0.40
2023-03-16T00:20:07.899Z,0.70
2023-03-16T00:22:35.444Z,2.20
2023-03-16T00:25:02.603Z,2.38
2023-03-16T00:27:29.922Z,2.08
2023-03-16T00:29:57.262Z,1.88
2023-03-16T00:32:33.355Z,1.70
2023-03-16T00:35:02.353Z,1.60
2023-03-16T00:37:30.095Z,1.20
2023-03-16T00:39:57.516Z,1.00
2023-03-16T00:42:28.134Z,0.88
2023-03-16T00:44:57.855Z,1.30
2023-03-16T00:47:27.107Z,0.70
2023-03-16T00:49:54.621Z,0.73
2023-03-16T00:52:22.485Z,0.90
2023-03-16T00:54:50.250Z,0.50
2023-03-16T00:57:19.079Z,0.73
2023-03-16T00:59:47.335Z,0.45
2023-03-16T01:02:16.338Z,0.52
2023-03-16T01:04:44.050Z,0.80
2023-03-16T01:07:14.539Z,1.00
2023-03-16T01:09:43.348Z,0.95
2023-03-16T01:12:25.907Z,0.77
2023-03-16T01:15:03.711Z,0.65
2023-03-16T01:17:47.614Z,0.50
2023-03-16T01:20:30.239Z,0.30
2023-03-16T01:22:57.925Z,0.30
2023-03-16T01:25:35.647Z,0.60
2023-03-16T01:28:04.152Z,5.97
2023-03-16T01:30:31.386Z,7.25
2023-03-16T01:32:59.091Z,8.25
2023-03-16T01:35:48.669Z,8.13
2023-03-16T01:38:25.366Z,5.70
2023-03-16T01:41:05.170Z,3.67
2023-03-16T01:43:35.087Z,2.42
2023-03-16T01:46:05.920Z,2.65
2023-03-16T01:48:52.042Z,2.40
2023-03-16T01:51:47.459Z,3.08
2023-03-16T01:54:35.309Z,4.35
2023-03-16T01:57:32.731Z,5.60
2023-03-16T02:00:24.100Z,5.63
2023-03-16T02:02:57.312Z,4.55
2023-03-16T02:05:39.189Z,4.95
2023-03-16T02:08:09.806Z,4.78
2023-03-16T02:10:39.027Z,4.45
2023-03-16T02:13:06.221Z,4.35
2023-03-16T02:15:36.246Z,3.70
2023-03-16T02:18:04.481Z,5.97
2023-03-16T02:20:34.752Z,5.93
2023-03-16T02:23:04.310Z,5.53
2023-03-16T02:25:54.177Z,5.32
2023-03-16T02:28:39.270Z,6.78
2023-03-16T02:31:07.528Z,5.72
2023-03-16T02:33:35.976Z,6.22
2023-03-16T02:36:03.108Z,7.78
2023-03-16T02:38:30.237Z,5.57
2023-03-16T02:41:15.468Z,5.57
2023-03-16T02:43:57.862Z,5.20
2023-03-16T02:46:28.756Z,4.97
2023-03-16T02:49:07.320Z,4.28
2023-03-16T02:51:34.492Z,4.38
2023-03-16T02:54:01.686Z,3.05
2023-03-16T02:56:28.705Z,3.40
2023-03-16T02:58:58.041Z,3.83
2023-03-16T03:01:25.376Z,3.30
2023-03-16T03:03:52.541Z,3.50
2023-03-16T03:06:19.641Z,4.00
2023-03-16T03:08:46.663Z,3.85
2023-03-16T03:11:13.687Z,4.18
2023-03-16T03:13:44.741Z,3.40
2023-03-16T03:16:12.985Z,3.33
2023-03-16T03:18:40.227Z,2.88
2023-03-16T03:21:07.948Z,2.45
2023-03-16T03:23:35.748Z,1.70
2023-03-16T03:26:04.531Z,1.60
2023-03-16T03:28:34.490Z,1.50
2023-03-16T03:31:04.163Z,1.35
2023-03-16T03:33:33.932Z,1.60
2023-03-16T03:36:02.535Z,1.73
2023-03-16T03:38:29.635Z,1.52
2023-03-16T03:40:59.826Z,1.30
2023-03-16T03:43:27.128Z,1.30
2023-03-16T03:46:02.241Z,1.10
2023-03-16T03:48:30.317Z,1.05
2023-03-16T03:50:57.685Z,1.00
2023-03-16T03:53:24.930Z,1.30
2023-03-16T03:55:52.157Z,1.05
2023-03-16T03:58:19.270Z,1.35
2023-03-16T04:00:46.445Z,0.80
2023-03-16T04:03:14.517Z,0.88
2023-03-16T04:05:42.051Z,0.80
2023-03-16T04:08:09.207Z,0.80
2023-03-16T04:10:36.241Z,0.60
2023-03-16T04:13:03.353Z,1.00
2023-03-16T04:15:33.125Z,0.80
2023-03-16T04:18:00.564Z,0.70
2023-03-16T04:20:30.727Z,0.82
2023-03-16T04:23:00.676Z,0.80
2023-03-16T04:25:28.080Z,0.80
2023-03-16T04:27:55.374Z,1.00
2023-03-16T04:30:25.734Z,0.80
2023-03-16T04:32:53.053Z,1.10
2023-03-16T04:35:20.197Z,0.50
2023-03-16T04:37:53.339Z,0.50
2023-03-16T04:40:21.229Z,0.40
2023-03-16T04:42:48.655Z,0.52
2023-03-16T04:45:20.463Z,0.40
2023-03-16T04:47:47.695Z,0.80
2023-03-16T04:50:14.844Z,0.90
2023-03-16T04:52:42.402Z,0.77
2023-03-16T04:55:09.752Z,0.77
2023-03-16T04:57:36.867Z,0.80
2023-03-16T05:00:14.543Z,1.10
2023-03-16T05:02:41.888Z,1.20
2023-03-16T05:05:09.409Z,1.17
2023-03-16T05:07:36.589Z,1.50
2023-03-16T05:10:03.910Z,1.10
2023-03-16T05:12:31.168Z,1.00
2023-03-16T05:14:58.574Z,0.93
2023-03-16T05:17:25.669Z,1.33
2023-03-16T05:19:52.729Z,0.68
2023-03-16T05:22:20.366Z,0.75
2023-03-16T05:24:47.427Z,0.60
2023-03-16T05:27:14.462Z,0.50
2023-03-16T05:29:46.686Z,0.40
2023-03-16T05:32:14.174Z,0.50
2023-03-16T05:34:43.499Z,0.40
2023-03-16T05:37:11.089Z,0.40
2023-03-16T05:39:39.459Z,0.50
2023-03-16T05:42:06.959Z,0.50
2023-03-16T05:44:34.732Z,0.70
2023-03-16T05:47:08.210Z,1.73
2023-03-16T05:49:35.522Z,2.15
2023-03-16T05:52:02.558Z,2.58
2023-03-16T05:54:29.556Z,2.63
2023-03-16T05:56:56.633Z,1.90
2023-03-16T05:59:23.696Z,1.40
2023-03-16T06:01:50.888Z,1.10
2023-03-16T06:04:18.110Z,1.02
2023-03-16T06:06:45.219Z,1.88
2023-03-16T06:09:12.231Z,1.70
2023-03-16T06:11:39.793Z,1.50
2023-03-16T06:14:06.839Z,2.15
2023-03-16T06:16:33.897Z,1.30
2023-03-16T06:19:01.335Z,1.35
2023-03-16T06:21:28.373Z,1.60
2023-03-16T06:23:56.238Z,1.88
2023-03-16T06:26:23.516Z,2.20
2023-03-16T06:28:50.662Z,1.67
2023-03-16T06:31:17.857Z,1.40
2023-03-16T06:33:45.004Z,1.42
2023-03-16T06:36:12.362Z,1.00
2023-03-16T06:38:39.507Z,1.15
2023-03-16T06:41:06.596Z,1.00
2023-03-16T06:43:33.581Z,1.10
2023-03-16T06:46:01.817Z,1.00
2023-03-16T06:48:29.386Z,0.90
2023-03-16T06:50:56.720Z,1.10
2023-03-16T06:53:23.707Z,1.95
2023-03-16T06:55:51.627Z,0.90
2023-03-16T06:58:19.181Z,2.40
2023-03-16T07:00:46.359Z,2.30
2023-03-16T07:03:14.487Z,2.75
2023-03-16T07:05:41.546Z,2.40
2023-03-16T07:08:09.570Z,3.55
2023-03-16T07:10:36.608Z,2.88
2023-03-16T07:13:08.236Z,2.60
2023-03-16T07:15:35.295Z,3.15
2023-03-16T07:18:02.469Z,3.30
2023-03-16T07:20:31.742Z,2.70
2023-03-16T07:22:59.196Z,2.60
2023-03-16T07:25:26.304Z,2.80
2023-03-16T07:27:53.389Z,3.00
2023-03-16T07:30:20.538Z,2.75
2023-03-16T07:32:47.791Z,3.03
2023-03-16T07:35:14.823Z,3.00
2023-03-16T07:37:42.405Z,2.88
2023-03-16T07:40:10.271Z,2.75
2023-03-16T07:42:37.912Z,2.60
2023-03-16T07:45:05.851Z,2.60
2023-03-16T07:47:34.053Z,2.22
2023-03-16T07:50:01.650Z,2.78
2023-03-16T07:52:29.118Z,2.50
2023-03-16T07:54:56.297Z,2.60
2023-03-16T07:57:23.408Z,2.58
2023-03-16T07:59:50.483Z,2.67
2023-03-16T08:02:20.413Z,2.50
2023-03-16T08:04:47.738Z,2.97
2023-03-16T08:07:15.979Z,2.85
2023-03-16T08:09:43.112Z,3.28
2023-03-16T08:12:11.530Z,3.22
2023-03-16T08:14:38.713Z,3.40
2023-03-16T08:17:07.922Z,3.47
2023-03-16T08:19:35.269Z,3.85
2023-03-16T08:22:02.434Z,3.35
2023-03-16T08:24:31.425Z,3.60
2023-03-16T08:26:59.184Z,3.80
2023-03-16T08:29:27.130Z,3.28
2023-03-16T08:31:56.861Z,3.65
2023-03-16T08:34:25.297Z,4.03
2023-03-16T08:36:52.668Z,4.38
2023-03-16T08:39:20.678Z,4.65
2023-03-16T08:41:48.469Z,5.13
2023-03-16T08:44:15.671Z,4.15
2023-03-16T08:46:42.916Z,3.63
2023-03-16T08:49:10.237Z,3.67
2023-03-16T08:51:38.043Z,3.05
2023-03-16T08:54:05.148Z,3.25
2023-03-16T08:56:32.736Z,2.65
2023-03-16T08:59:00.057Z,3.80
2023-03-16T09:01:27.844Z,3.08
2023-03-16T09:03:55.308Z,3.20
2023-03-16T09:06:22.715Z,4.07
2023-03-16T09:08:49.764Z,3.70
2023-03-16T09:11:19.147Z,4.18
2023-03-16T09:13:47.628Z,3.38
2023-03-16T09:16:16.131Z,3.40
2023-03-16T09:18:44.367Z,2.83
2023-03-16T09:21:14.187Z,3.70
2023-03-16T09:23:43.231Z,3.55
2023-03-16T09:26:13.066Z,3.38
2023-03-16T09:28:42.625Z,3.25
2023-03-16T09:31:15.905Z,3.60
2023-03-16T09:33:43.326Z,3.45
2023-03-16T09:36:12.122Z,3.75
2023-03-16T09:38:39.652Z,3.67
2023-03-16T09:41:25.323Z,4.25
2023-03-16T09:44:17.415Z,3.80
2023-03-16T09:46:46.424Z,3.08
2023-03-16T09:49:18.139Z,4.43
2023-03-16T09:52:08.852Z,4.35
2023-03-16T09:54:49.761Z,3.63
2023-03-16T09:57:32.575Z,4.10
2023-03-16T10:00:14.754Z,4.07
2023-03-16T10:03:05.248Z,4.43
2023-03-16T10:05:34.019Z,4.45
2023-03-16T10:08:15.695Z,4.90
2023-03-16T10:11:02.306Z,4.65
2023-03-16T10:13:42.616Z,4.70
2023-03-16T10:16:17.748Z,4.13
2023-03-16T10:18:48.426Z,4.88
2023-03-16T10:21:18.675Z,5.10
2023-03-16T10:23:47.274Z,4.70
2023-03-16T10:26:23.384Z,4.60
2023-03-16T10:28:53.132Z,4.30
2023-03-16T10:31:23.319Z,4.60
2023-03-16T10:34:03.043Z,4.70
2023-03-16T10:36:36.473Z,4.15
2023-03-16T10:39:09.692Z,3.92
2023-03-16T10:41:43.486Z,3.10
2023-03-16T10:46:54.410Z,3.33
2023-03-16T10:49:28.167Z,3.90
2023-03-16T10:51:58.153Z,4.00
2023-03-16T10:54:59.343Z,5.35
2023-03-16T10:57:35.480Z,4.65
2023-03-16T11:00:15.057Z,4.03
2023-03-16T11:02:43.128Z,3.72
2023-03-16T11:05:28.595Z,4.43
2023-03-16T11:08:26.584Z,3.20
2023-03-16T11:10:59.118Z,3.13
2023-03-16T11:13:34.806Z,3.65
2023-03-16T11:16:30.820Z,4.15
2023-03-16T11:19:15.198Z,3.83
2023-03-16T11:21:55.372Z,3.75
2023-03-16T11:24:25.355Z,4.63
2023-03-16T11:27:01.998Z,3.47
2023-03-16T11:29:35.170Z,4.22
2023-03-16T11:32:06.505Z,3.30
2023-03-16T11:34:35.581Z,3.67
2023-03-16T11:37:58.066Z,3.75
2023-03-16T11:40:45.890Z,3.80
2023-03-16T11:43:38.279Z,3.45
2023-03-16T11:46:23.127Z,3.47
2023-03-16T11:49:12.418Z,3.00
2023-03-16T11:51:52.269Z,3.83
2023-03-16T11:54:45.287Z,3.58
2023-03-16T11:57:31.080Z,3.13
2023-03-16T12:00:27.324Z,2.90
2023-03-16T12:03:23.268Z,3.53
2023-03-16T12:06:24.607Z,3.47
2023-03-16T12:09:29.073Z,3.08
2023-03-16T12:12:09.191Z,3.17
2023-03-16T12:14:47.093Z,3.10
2023-03-16T12:17:31.441Z,3.00
2023-03-16T12:20:21.473Z,2.70
2023-03-16T12:22:59.645Z,3.00
2023-03-16T12:25:32.040Z,3.60
2023-03-16T12:28:02.995Z,3.38
2023-03-16T12:30:33.153Z,3.40
2023-03-16T12:33:25.520Z,2.88
2023-03-16T12:36:05.325Z,2.50
2023-03-16T12:38:46.260Z,2.80
2023-03-16T12:41:39.366Z,3.10
2023-03-16T12:44:15.558Z,2.88
2023-03-16T12:46:50.396Z,2.70
2023-03-16T12:49:17.678Z,3.45
2023-03-16T12:51:45.801Z,2.65
2023-03-16T12:54:24.560Z,2.67
2023-03-16T12:57:01.964Z,2.42
2023-03-16T12:59:43.197Z,2.40
2023-03-16T13:02:21.179Z,2.90
2023-03-16T13:05:00.141Z,3.38
2023-03-16T13:07:31.404Z,2.78
2023-03-16T13:10:12.621Z,2.88
2023-03-16T13:12:42.059Z,2.63
2023-03-16T13:15:19.648Z,2.70
2023-03-16T13:17:48.857Z,2.97
2023-03-16T13:20:37.337Z,2.85
2023-03-16T13:23:22.482Z,3.08
2023-03-16T13:26:24.246Z,2.42
2023-03-16T13:28:54.556Z,2.55
2023-03-16T13:31:21.906Z,2.28
2023-03-16T13:33:51.623Z,3.03
2023-03-16T13:36:19.275Z,3.10
2023-03-16T13:39:04.679Z,2.67
2023-03-16T13:41:31.745Z,3.00
2023-03-16T13:43:58.798Z,3.05
2023-03-16T13:46:30.508Z,2.72
2023-03-16T13:49:03.145Z,2.70
2023-03-16T13:51:34.322Z,3.00
2023-03-16T13:54:19.382Z,2.80
2023-03-16T13:56:47.148Z,2.58
2023-03-16T13:59:14.498Z,2.80
2023-03-16T14:01:45.749Z,2.80
2023-03-16T14:04:16.490Z,2.40
2023-03-16T14:06:56.464Z,2.63
2023-03-16T14:09:27.755Z,2.63
2023-03-16T14:11:55.779Z,2.28
2023-03-16T14:14:32.261Z,2.30
2023-03-16T14:17:21.942Z,2.92
2023-03-16T14:19:53.011Z,2.28
2023-03-16T14:22:24.384Z,2.20
2023-03-16T14:25:01.029Z,3.00
2023-03-16T14:27:40.160Z,2.47
2023-03-16T14:30:26.139Z,2.20
2023-03-16T14:33:07.317Z,2.40
2023-03-16T14:35:43.127Z,2.35
2023-03-16T14:38:29.277Z,1.95
2023-03-16T14:41:05.253Z,2.30
2023-03-16T14:43:39.007Z,2.80
2023-03-16T14:48:35.938Z,2.10
2023-03-16T14:51:04.703Z,2.20
2023-03-16T14:53:31.998Z,2.67
2023-03-16T14:55:59.740Z,2.20
2023-03-16T14:58:27.150Z,2.45
2023-03-16T15:00:55.174Z,2.28
2023-03-16T15:03:30.708Z,2.20
2023-03-16T15:05:57.746Z,2.60
2023-03-16T15:08:28.813Z,2.10
2023-03-16T15:11:07.275Z,2.00
2023-03-16T15:13:47.149Z,2.08
2023-03-16T15:16:15.093Z,2.20
2023-03-16T15:18:42.943Z,2.20
2023-03-16T15:21:13.150Z,1.73
2023-03-16T15:23:44.458Z,2.20
2023-03-16T15:26:16.845Z,2.40
2023-03-16T15:28:44.293Z,2.28
2023-03-16T15:31:14.786Z,2.28
2023-03-16T15:33:42.400Z,2.90
2023-03-16T15:36:18.785Z,2.70
2023-03-16T15:38:48.874Z,2.40
2023-03-16T15:41:16.639Z,2.40
2023-03-16T15:43:45.817Z,1.88
2023-03-16T15:46:13.702Z,1.85
2023-03-16T15:48:40.972Z,2.15
2023-03-16T15:51:18.134Z,1.80
2023-03-16T15:53:55.082Z,2.50
2023-03-16T15:56:29.505Z,2.25
2023-03-16T15:59:00.616Z,2.22
2023-03-16T16:01:38.664Z,2.53
2023-03-16T16:04:12.951Z,2.28
2023-03-16T16:06:40.287Z,2.20
2023-03-16T16:09:07.678Z,2.42
2023-03-16T16:11:34.838Z,2.20
2023-03-16T16:14:02.429Z,2.08
2023-03-16T16:16:31.118Z,1.80
2023-03-16T16:18:58.496Z,2.33
2023-03-16T16:21:32.267Z,2.13
2023-03-16T16:26:41.548Z,2.58
2023-03-16T16:29:24.635Z,2.10
2023-03-16T16:31:52.582Z,2.65
2023-03-16T16:34:22.072Z,2.00
2023-03-16T16:36:49.815Z,1.75
2023-03-16T16:39:17.546Z,2.03
2023-03-16T16:41:44.767Z,2.13
2023-03-16T16:44:19.188Z,2.40
2023-03-16T16:46:49.284Z,2.05
2023-03-16T16:49:26.838Z,2.40
2023-03-16T16:51:54.405Z,2.25
2023-03-16T16:54:28.921Z,2.85
2023-03-16T16:56:57.935Z,2.20
2023-03-16T16:59:46.003Z,1.90
2023-03-16T17:02:32.883Z,2.10
2023-03-16T17:05:00.122Z,2.75
2023-03-16T17:07:27.598Z,1.90
2023-03-16T17:09:55.638Z,2.00
2023-03-16T17:12:24.229Z,2.40
2023-03-16T17:14:51.922Z,2.85
2023-03-16T17:17:19.321Z,2.38
2023-03-16T17:19:47.184Z,2.05
2023-03-16T17:22:24.954Z,2.22
2023-03-16T17:24:54.247Z,2.30
2023-03-16T17:27:29.330Z,1.90
2023-03-16T17:29:57.942Z,1.83
2023-03-16T17:32:25.788Z,2.05
2023-03-16T17:34:53.044Z,1.83
2023-03-16T17:37:22.413Z,2.20
2023-03-16T17:39:49.677Z,1.95
2023-03-16T17:42:19.235Z,2.25
2023-03-16T17:44:51.354Z,2.10
2023-03-16T17:47:27.215Z,2.63
2023-03-16T17:49:54.798Z,2.05
2023-03-16T17:52:25.981Z,1.88
2023-03-16T17:54:54.206Z,2.72
2023-03-16T17:57:33.854Z,2.00
2023-03-16T18:00:03.164Z,2.13
2023-03-16T18:02:39.800Z,2.10
2023-03-16T18:05:16.468Z,2.65
2023-03-16T18:07:43.550Z,2.50
2023-03-16T18:10:19.526Z,2.63
2023-03-16T18:12:48.963Z,2.97
2023-03-16T18:15:22.032Z,2.17
2023-03-16T18:17:51.167Z,2.22
2023-03-16T18:20:28.522Z,2.45
2023-03-16T18:22:56.523Z,2.00
2023-03-16T18:25:39.318Z,2.83
2023-03-16T18:28:11.167Z,2.03
2023-03-16T18:30:39.923Z,2.47
2023-03-16T18:33:15.145Z,2.00
2023-03-16T18:35:42.167Z,2.13
2023-03-16T18:38:19.007Z,2.25
2023-03-16T18:40:47.685Z,2.38
2023-03-16T18:43:17.089Z,2.70
2023-03-16T18:45:48.113Z,2.22
2023-03-16T18:48:28.111Z,2.40
2023-03-16T18:50:56.005Z,2.25
2023-03-16T18:53:23.274Z,2.40
2023-03-16T18:55:50.984Z,2.22
2023-03-16T18:58:24.216Z,2.38
2023-03-16T19:00:55.482Z,2.47
2023-03-16T19:03:35.323Z,2.35
2023-03-16T19:06:02.563Z,2.25
2023-03-16T19:08:30.430Z,3.10
2023-03-16T19:11:02.162Z,2.70
2023-03-16T19:13:30.064Z,2.70
2023-03-16T19:15:58.072Z,2.83
2023-03-16T19:18:26.463Z,3.67
2023-03-16T19:20:55.398Z,3.17
2023-03-16T19:23:33.068Z,2.45
2023-03-16T19:26:00.217Z,2.17
2023-03-16T19:28:29.545Z,2.65
2023-03-16T19:30:57.544Z,2.28
2023-03-16T19:33:26.603Z,1.90
2023-03-16T19:35:55.541Z,1.80
2023-03-16T19:38:24.384Z,2.40
2023-03-16T19:41:00.591Z,2.00
2023-03-16T19:43:28.964Z,2.45
2023-03-16T19:45:56.857Z,2.22
2023-03-16T19:48:34.180Z,2.63
2023-03-16T19:51:02.153Z,2.50
2023-03-16T19:53:29.253Z,2.30
2023-03-16T19:55:56.686Z,2.10
2023-03-16T19:58:41.865Z,2.97
2023-03-16T20:01:22.369Z,2.38
2023-03-16T20:03:50.383Z,2.90
2023-03-16T20:06:20.870Z,3.08
2023-03-16T20:08:49.460Z,2.40
2023-03-16T20:11:22.310Z,2.50
2023-03-16T20:13:50.532Z,2.58
2023-03-16T20:16:30.210Z,2.25
2023-03-16T20:19:00.673Z,2.50
2023-03-16T20:21:28.350Z,2.40
2023-03-16T20:23:55.993Z,4.80
2023-03-16T20:26:27.071Z,8.43
2023-03-16T20:28:54.317Z,6.40
2023-03-16T20:31:23.950Z,5.05
2023-03-16T20:33:52.631Z,4.68
2023-03-16T20:36:21.858Z,4.15
2023-03-16T20:38:49.542Z,4.10
2023-03-16T20:41:19.387Z,3.85
2023-03-16T20:43:46.742Z,3.97
2023-03-16T20:46:19.887Z,4.10
2023-03-16T20:48:47.204Z,4.38
2023-03-16T20:51:16.527Z,4.80
2023-03-16T20:53:48.047Z,4.43
2023-03-16T20:56:21.309Z,5.03
2023-03-16T20:58:50.277Z,4.80
2023-03-16T21:01:21.950Z,4.90
2023-03-16T21:03:50.943Z,4.47
2023-03-16T21:06:23.788Z,6.25
2023-03-16T21:08:55.675Z,4.78
2023-03-16T21:11:39.365Z,4.22
2023-03-16T21:14:14.403Z,4.32
2023-03-16T21:16:41.617Z,4.35
2023-03-16T21:19:20.341Z,4.55
2023-03-16T21:21:47.448Z,4.03
2023-03-16T21:24:14.532Z,3.78
2023-03-16T21:26:43.125Z,4.18
2023-03-16T21:29:17.971Z,3.63
2023-03-16T21:31:45.256Z,3.10
2023-03-16T21:34:24.497Z,3.40
2023-03-16T21:36:52.014Z,2.90
2023-03-16T21:39:22.725Z,2.90
2023-03-16T21:41:50.998Z,3.00
2023-03-16T21:44:18.707Z,3.35
2023-03-16T21:46:47.570Z,3.67
2023-03-16T21:49:16.072Z,2.58
2023-03-16T21:51:43.552Z,3.35
2023-03-16T21:54:18.142Z,2.33
2023-03-16T21:56:46.758Z,2.70
2023-03-16T21:59:14.102Z,2.38
2023-03-16T22:01:58.228Z,2.17
2023-03-16T22:04:28.977Z,2.60
2023-03-16T22:06:56.001Z,2.00
2023-03-16T22:09:25.168Z,2.20
2023-03-16T22:11:52.468Z,1.90
2023-03-16T22:14:19.530Z,2.00
2023-03-16T22:16:46.776Z,1.70
2023-03-16T22:19:18.388Z,1.77
2023-03-16T22:21:47.464Z,1.90
2023-03-16T22:24:18.266Z,2.42
2023-03-16T22:26:46.676Z,2.80
2023-03-16T22:29:26.718Z,3.70
2023-03-16T22:32:01.718Z,3.22
2023-03-16T22:34:37.884Z,3.30
2023-03-16T22:37:05.932Z,3.97
2023-03-16T22:39:37.995Z,4.50
2023-03-16T22:42:25.277Z,4.53
2023-03-16T22:44:52.342Z,3.70
2023-03-16T22:47:24.439Z,3.00
2023-03-16T22:49:51.822Z,3.00
2023-03-16T22:52:19.076Z,1.90
2023-03-16T22:54:47.908Z,1.30
2023-03-16T22:57:17.246Z,1.40
2023-03-16T22:59:46.145Z,1.27
2023-03-16T23:02:20.029Z,1.33
2023-03-16T23:07:15.228Z,1.15
2023-03-16T23:09:42.385Z,1.00
2023-03-16T23:12:19.992Z,0.98
2023-03-16T23:14:47.086Z,0.93
2023-03-16T23:17:19.549Z,0.93
2023-03-16T23:19:48.383Z,0.80
2023-03-16T23:22:16.358Z,0.90
2023-03-16T23:24:43.404Z,0.75
2023-03-16T23:27:19.157Z,0.93
2023-03-16T23:29:46.912Z,1.10
2023-03-16T23:32:17.185Z,1.00
2023-03-16T23:34:44.731Z,0.85
2023-03-16T23:37:12.208Z,1.05
2023-03-16T23:39:40.152Z,1.00
2023-03-16T23:42:07.560Z,1.77
2023-03-16T23:44:35.078Z,1.50
2023-03-16T23:47:02.587Z,1.70
2023-03-16T23:49:33.162Z,1.77
2023-03-16T23:52:01.987Z,1.67
2023-03-16T23:54:31.983Z,1.80
2023-03-16T23:56:59.278Z,1.58
2023-03-16T23:59:29.425Z,1.40
